sensor_id;sensor_type;location;lat;lon;timestamp;P1;durP1;ratioP1;P2;durP2;ratioP2
12334;SDS011;6233;51.560;9.986;2023-06-10T00:00:52;6.03;;;4.13;;
12334;SDS011;6233;51.560;9.986;2023-06-10T00:03:54;5.07;;;3.83;;
12334;SDS011;6233;51.560;9.986;2023-06-10T00:06:56;4.80;;;4.10;;
12334;SDS011;6233;51.560;9.986;2023-06-10T00:09:59;6.07;;;4.37;;
12334;SDS011;6233;51.560;9.986;2023-06-10T00:13:01;7.13;;;4.20;;
12334;SDS011;6233;51.560;9.986;2023-06-10T00:16:08;4.33;;;3.93;;
12334;SDS011;6233;51.560;9.986;2023-06-10T00:19:11;5.13;;;4.40;;
12334;SDS011;6233;51.560;9.986;2023-06-10T00:22:15;6.50;;;4.30;;
12334;SDS011;6233;51.560;9.986;2023-06-10T00:25:17;4.77;;;4.33;;
12334;SDS011;6233;51.560;9.986;2023-06-10T00:28:20;4.87;;;4.40;;
12334;SDS011;6233;51.560;9.986;2023-06-10T00:31:21;5.73;;;4.33;;
12334;SDS011;6233;51.560;9.986;2023-06-10T00:34:23;4.80;;;4.17;;
12334;SDS011;6233;51.560;9.986;2023-06-10T00:37:26;6.33;;;4.40;;
12334;SDS011;6233;51.560;9.986;2023-06-10T00:40:28;6.73;;;4.83;;
12334;SDS011;6233;51.560;9.986;2023-06-10T00:43:30;9.37;;;4.60;;
12334;SDS011;6233;51.560;9.986;2023-06-10T00:46:31;4.93;;;4.30;;
12334;SDS011;6233;51.560;9.986;2023-06-10T00:49:34;5.20;;;4.17;;
12334;SDS011;6233;51.560;9.986;2023-06-10T00:52:36;8.33;;;4.33;;
12334;SDS011;6233;51.560;9.986;2023-06-10T00:55:38;5.37;;;4.57;;
12334;SDS011;6233;51.560;9.986;2023-06-10T00:58:41;5.43;;;4.13;;
12334;SDS011;6233;51.560;9.986;2023-06-10T01:01:43;6.03;;;4.50;;
12334;SDS011;6233;51.560;9.986;2023-06-10T01:04:48;6.50;;;4.00;;
12334;SDS011;6233;51.560;9.986;2023-06-10T01:07:56;6.77;;;4.10;;
12334;SDS011;6233;51.560;9.986;2023-06-10T01:11:07;6.13;;;4.77;;
12334;SDS011;6233;51.560;9.986;2023-06-10T01:14:14;6.53;;;4.50;;
12334;SDS011;6233;51.560;9.986;2023-06-10T01:17:18;5.47;;;4.17;;
12334;SDS011;6233;51.560;9.986;2023-06-10T01:20:20;5.33;;;4.13;;
12334;SDS011;6233;51.560;9.986;2023-06-10T01:23:22;5.00;;;4.30;;
12334;SDS011;6233;51.560;9.986;2023-06-10T01:26:25;6.13;;;4.10;;
12334;SDS011;6233;51.560;9.986;2023-06-10T01:29:36;4.73;;;4.30;;
12334;SDS011;6233;51.560;9.986;2023-06-10T01:32:48;4.87;;;4.23;;
12334;SDS011;6233;51.560;9.986;2023-06-10T01:35:52;5.43;;;3.90;;
12334;SDS011;6233;51.560;9.986;2023-06-10T01:38:54;4.10;;;3.70;;
12334;SDS011;6233;51.560;9.986;2023-06-10T01:41:57;5.90;;;4.50;;
12334;SDS011;6233;51.560;9.986;2023-06-10T01:44:59;4.87;;;3.90;;
12334;SDS011;6233;51.560;9.986;2023-06-10T01:48:01;6.57;;;4.10;;
12334;SDS011;6233;51.560;9.986;2023-06-10T01:51:03;6.33;;;4.07;;
12334;SDS011;6233;51.560;9.986;2023-06-10T01:54:05;5.37;;;4.03;;
12334;SDS011;6233;51.560;9.986;2023-06-10T01:57:07;4.17;;;3.80;;
12334;SDS011;6233;51.560;9.986;2023-06-10T02:00:09;4.80;;;4.20;;
12334;SDS011;6233;51.560;9.986;2023-06-10T02:03:12;5.63;;;3.97;;
12334;SDS011;6233;51.560;9.986;2023-06-10T02:06:14;4.50;;;3.90;;
12334;SDS011;6233;51.560;9.986;2023-06-10T02:09:16;6.50;;;3.93;;
12334;SDS011;6233;51.560;9.986;2023-06-10T02:12:19;4.53;;;3.77;;
12334;SDS011;6233;51.560;9.986;2023-06-10T02:15:21;5.43;;;4.17;;
12334;SDS011;6233;51.560;9.986;2023-06-10T02:18:22;6.47;;;3.87;;
12334;SDS011;6233;51.560;9.986;2023-06-10T02:21:24;5.50;;;3.73;;
12334;SDS011;6233;51.560;9.986;2023-06-10T02:24:26;4.83;;;3.90;;
12334;SDS011;6233;51.560;9.986;2023-06-10T02:27:28;5.40;;;4.13;;
12334;SDS011;6233;51.560;9.986;2023-06-10T02:30:30;5.27;;;3.90;;
12334;SDS011;6233;51.560;9.986;2023-06-10T02:33:31;4.00;;;3.40;;
12334;SDS011;6233;51.560;9.986;2023-06-10T02:36:34;4.60;;;3.70;;
12334;SDS011;6233;51.560;9.986;2023-06-10T02:39:37;3.70;;;3.37;;
12334;SDS011;6233;51.560;9.986;2023-06-10T02:42:38;6.17;;;3.80;;
12334;SDS011;6233;51.560;9.986;2023-06-10T02:45:40;4.60;;;3.43;;
12334;SDS011;6233;51.560;9.986;2023-06-10T02:48:42;4.60;;;3.97;;
12334;SDS011;6233;51.560;9.986;2023-06-10T02:51:45;4.90;;;3.70;;
12334;SDS011;6233;51.560;9.986;2023-06-10T02:54:46;4.90;;;3.57;;
12334;SDS011;6233;51.560;9.986;2023-06-10T02:57:48;4.57;;;3.70;;
12334;SDS011;6233;51.560;9.986;2023-06-10T03:00:50;4.10;;;3.70;;
12334;SDS011;6233;51.560;9.986;2023-06-10T03:03:52;5.20;;;3.87;;
12334;SDS011;6233;51.560;9.986;2023-06-10T03:06:54;6.57;;;3.90;;
12334;SDS011;6233;51.560;9.986;2023-06-10T03:09:55;4.77;;;3.77;;
12334;SDS011;6233;51.560;9.986;2023-06-10T03:12:57;5.43;;;3.97;;
12334;SDS011;6233;51.560;9.986;2023-06-10T03:15:59;4.50;;;3.93;;
12334;SDS011;6233;51.560;9.986;2023-06-10T03:19:01;4.90;;;3.93;;
12334;SDS011;6233;51.560;9.986;2023-06-10T03:22:11;5.77;;;4.10;;
12334;SDS011;6233;51.560;9.986;2023-06-10T03:25:14;4.53;;;3.50;;
12334;SDS011;6233;51.560;9.986;2023-06-10T03:28:16;4.00;;;3.60;;
12334;SDS011;6233;51.560;9.986;2023-06-10T03:31:17;4.27;;;3.53;;
12334;SDS011;6233;51.560;9.986;2023-06-10T03:34:19;3.87;;;3.47;;
12334;SDS011;6233;51.560;9.986;2023-06-10T03:37:22;4.23;;;3.53;;
12334;SDS011;6233;51.560;9.986;2023-06-10T03:40:25;4.67;;;3.47;;
12334;SDS011;6233;51.560;9.986;2023-06-10T03:43:26;5.97;;;3.53;;
12334;SDS011;6233;51.560;9.986;2023-06-10T03:46:28;5.83;;;3.90;;
12334;SDS011;6233;51.560;9.986;2023-06-10T03:49:30;5.93;;;3.53;;
12334;SDS011;6233;51.560;9.986;2023-06-10T03:52:32;5.77;;;3.97;;
12334;SDS011;6233;51.560;9.986;2023-06-10T03:55:34;4.80;;;4.03;;
12334;SDS011;6233;51.560;9.986;2023-06-10T03:58:36;5.07;;;4.10;;
12334;SDS011;6233;51.560;9.986;2023-06-10T04:01:37;5.07;;;4.00;;
12334;SDS011;6233;51.560;9.986;2023-06-10T04:04:42;4.10;;;3.70;;
12334;SDS011;6233;51.560;9.986;2023-06-10T04:07:43;7.07;;;4.30;;
12334;SDS011;6233;51.560;9.986;2023-06-10T04:10:46;4.93;;;4.07;;
12334;SDS011;6233;51.560;9.986;2023-06-10T04:13:48;6.03;;;4.13;;
12334;SDS011;6233;51.560;9.986;2023-06-10T04:16:50;6.73;;;4.67;;
12334;SDS011;6233;51.560;9.986;2023-06-10T04:19:52;6.13;;;4.40;;
12334;SDS011;6233;51.560;9.986;2023-06-10T04:22:55;4.70;;;4.23;;
12334;SDS011;6233;51.560;9.986;2023-06-10T04:25:58;7.37;;;4.27;;
12334;SDS011;6233;51.560;9.986;2023-06-10T04:29:00;4.50;;;3.83;;
12334;SDS011;6233;51.560;9.986;2023-06-10T04:32:02;4.87;;;4.20;;
12334;SDS011;6233;51.560;9.986;2023-06-10T04:35:06;6.23;;;4.37;;
12334;SDS011;6233;51.560;9.986;2023-06-10T04:38:09;5.77;;;3.97;;
12334;SDS011;6233;51.560;9.986;2023-06-10T04:41:11;5.50;;;4.40;;
12334;SDS011;6233;51.560;9.986;2023-06-10T04:44:12;5.00;;;4.40;;
12334;SDS011;6233;51.560;9.986;2023-06-10T04:47:14;6.17;;;4.10;;
12334;SDS011;6233;51.560;9.986;2023-06-10T04:50:18;8.73;;;4.40;;
12334;SDS011;6233;51.560;9.986;2023-06-10T04:53:20;9.93;;;6.90;;
12334;SDS011;6233;51.560;9.986;2023-06-10T04:56:22;7.07;;;4.60;;
12334;SDS011;6233;51.560;9.986;2023-06-10T04:59:24;6.83;;;5.00;;
12334;SDS011;6233;51.560;9.986;2023-06-10T05:02:25;9.23;;;5.73;;
12334;SDS011;6233;51.560;9.986;2023-06-10T05:05:27;6.80;;;3.97;;
12334;SDS011;6233;51.560;9.986;2023-06-10T05:08:29;14.47;;;10.50;;
12334;SDS011;6233;51.560;9.986;2023-06-10T05:11:30;8.40;;;6.63;;
12334;SDS011;6233;51.560;9.986;2023-06-10T05:14:32;7.87;;;5.70;;
12334;SDS011;6233;51.560;9.986;2023-06-10T05:17:34;6.73;;;5.17;;
12334;SDS011;6233;51.560;9.986;2023-06-10T05:20:36;5.50;;;4.53;;
12334;SDS011;6233;51.560;9.986;2023-06-10T05:23:38;9.67;;;6.87;;
12334;SDS011;6233;51.560;9.986;2023-06-10T05:26:39;7.63;;;5.27;;
12334;SDS011;6233;51.560;9.986;2023-06-10T05:29:42;6.27;;;4.53;;
12334;SDS011;6233;51.560;9.986;2023-06-10T05:32:44;5.90;;;4.30;;
12334;SDS011;6233;51.560;9.986;2023-06-10T05:35:46;5.63;;;3.90;;
12334;SDS011;6233;51.560;9.986;2023-06-10T05:38:47;4.93;;;3.77;;
12334;SDS011;6233;51.560;9.986;2023-06-10T05:44:55;7.17;;;6.30;;
12334;SDS011;6233;51.560;9.986;2023-06-10T05:47:57;4.47;;;3.90;;
12334;SDS011;6233;51.560;9.986;2023-06-10T05:50:58;4.87;;;4.20;;
12334;SDS011;6233;51.560;9.986;2023-06-10T05:54:00;5.60;;;4.93;;
12334;SDS011;6233;51.560;9.986;2023-06-10T05:57:02;6.43;;;5.10;;
12334;SDS011;6233;51.560;9.986;2023-06-10T06:00:04;5.67;;;5.03;;
12334;SDS011;6233;51.560;9.986;2023-06-10T06:03:07;6.80;;;5.07;;
12334;SDS011;6233;51.560;9.986;2023-06-10T06:06:09;9.83;;;8.63;;
12334;SDS011;6233;51.560;9.986;2023-06-10T06:09:11;8.10;;;6.40;;
12334;SDS011;6233;51.560;9.986;2023-06-10T06:12:13;7.37;;;4.77;;
12334;SDS011;6233;51.560;9.986;2023-06-10T06:15:15;5.63;;;4.20;;
12334;SDS011;6233;51.560;9.986;2023-06-10T06:18:17;4.30;;;3.80;;
12334;SDS011;6233;51.560;9.986;2023-06-10T06:21:19;9.13;;;4.43;;
12334;SDS011;6233;51.560;9.986;2023-06-10T06:24:21;5.70;;;4.40;;
12334;SDS011;6233;51.560;9.986;2023-06-10T06:27:23;6.10;;;4.43;;
12334;SDS011;6233;51.560;9.986;2023-06-10T06:30:25;6.10;;;4.27;;
12334;SDS011;6233;51.560;9.986;2023-06-10T06:33:26;4.70;;;4.20;;
12334;SDS011;6233;51.560;9.986;2023-06-10T06:36:28;5.73;;;4.90;;
12334;SDS011;6233;51.560;9.986;2023-06-10T06:39:30;6.00;;;3.87;;
12334;SDS011;6233;51.560;9.986;2023-06-10T06:42:32;5.80;;;4.03;;
12334;SDS011;6233;51.560;9.986;2023-06-10T06:45:33;5.40;;;3.53;;
12334;SDS011;6233;51.560;9.986;2023-06-10T06:48:35;5.73;;;3.70;;
12334;SDS011;6233;51.560;9.986;2023-06-10T06:51:37;4.23;;;3.83;;
12334;SDS011;6233;51.560;9.986;2023-06-10T06:54:41;4.90;;;4.17;;
12334;SDS011;6233;51.560;9.986;2023-06-10T06:57:43;6.03;;;4.50;;
12334;SDS011;6233;51.560;9.986;2023-06-10T07:00:45;5.93;;;4.27;;
12334;SDS011;6233;51.560;9.986;2023-06-10T07:03:47;5.53;;;4.03;;
12334;SDS011;6233;51.560;9.986;2023-06-10T07:06:48;5.90;;;4.00;;
12334;SDS011;6233;51.560;9.986;2023-06-10T07:09:50;4.40;;;3.83;;
12334;SDS011;6233;51.560;9.986;2023-06-10T07:12:52;5.87;;;4.47;;
12334;SDS011;6233;51.560;9.986;2023-06-10T07:15:54;5.37;;;4.23;;
12334;SDS011;6233;51.560;9.986;2023-06-10T07:18:56;4.77;;;4.27;;
12334;SDS011;6233;51.560;9.986;2023-06-10T07:21:57;5.57;;;4.20;;
12334;SDS011;6233;51.560;9.986;2023-06-10T07:24:59;6.53;;;4.80;;
12334;SDS011;6233;51.560;9.986;2023-06-10T07:28:01;4.60;;;4.07;;
12334;SDS011;6233;51.560;9.986;2023-06-10T07:31:03;9.30;;;4.40;;
12334;SDS011;6233;51.560;9.986;2023-06-10T07:34:05;7.57;;;5.80;;
12334;SDS011;6233;51.560;9.986;2023-06-10T07:37:07;6.30;;;4.17;;
12334;SDS011;6233;51.560;9.986;2023-06-10T07:43:36;4.70;;;4.13;;
12334;SDS011;6233;51.560;9.986;2023-06-10T07:46:38;5.43;;;3.83;;
12334;SDS011;6233;51.560;9.986;2023-06-10T07:49:40;4.87;;;4.37;;
12334;SDS011;6233;51.560;9.986;2023-06-10T07:52:43;6.20;;;4.73;;
12334;SDS011;6233;51.560;9.986;2023-06-10T07:55:44;7.63;;;5.10;;
12334;SDS011;6233;51.560;9.986;2023-06-10T07:58:46;5.70;;;4.97;;
12334;SDS011;6233;51.560;9.986;2023-06-10T08:01:48;5.77;;;4.90;;
12334;SDS011;6233;51.560;9.986;2023-06-10T08:04:50;8.60;;;5.93;;
12334;SDS011;6233;51.560;9.986;2023-06-10T08:07:51;9.80;;;8.07;;
12334;SDS011;6233;51.560;9.986;2023-06-10T08:10:53;11.35;;;10.23;;
12334;SDS011;6233;51.560;9.986;2023-06-10T08:13:55;10.95;;;7.40;;
12334;SDS011;6233;51.560;9.986;2023-06-10T08:16:57;7.10;;;5.80;;
12334;SDS011;6233;51.560;9.986;2023-06-10T08:19:59;7.38;;;5.32;;
12334;SDS011;6233;51.560;9.986;2023-06-10T08:23:00;7.95;;;7.07;;
12334;SDS011;6233;51.560;9.986;2023-06-10T08:26:02;6.88;;;5.78;;
12334;SDS011;6233;51.560;9.986;2023-06-10T08:29:04;6.53;;;5.82;;
12334;SDS011;6233;51.560;9.986;2023-06-10T08:32:06;5.85;;;5.25;;
12334;SDS011;6233;51.560;9.986;2023-06-10T08:35:08;6.03;;;5.10;;
12334;SDS011;6233;51.560;9.986;2023-06-10T08:38:10;8.38;;;7.55;;
12334;SDS011;6233;51.560;9.986;2023-06-10T08:41:12;6.85;;;6.07;;
12334;SDS011;6233;51.560;9.986;2023-06-10T08:44:52;7.07;;;6.38;;
12334;SDS011;6233;51.560;9.986;2023-06-10T08:47:49;7.20;;;5.00;;
12334;SDS011;6233;51.560;9.986;2023-06-10T08:50:55;8.60;;;6.50;;
12334;SDS011;6233;51.560;9.986;2023-06-10T08:54:00;8.68;;;7.80;;
12334;SDS011;6233;51.560;9.986;2023-06-10T08:57:10;8.27;;;7.38;;
12334;SDS011;6233;51.560;9.986;2023-06-10T09:00:13;5.85;;;5.35;;
12334;SDS011;6233;51.560;9.986;2023-06-10T09:03:17;7.45;;;6.75;;
12334;SDS011;6233;51.560;9.986;2023-06-10T09:06:20;9.63;;;8.68;;
12334;SDS011;6233;51.560;9.986;2023-06-10T09:12:54;9.50;;;8.65;;
12334;SDS011;6233;51.560;9.986;2023-06-10T09:15:56;7.70;;;5.97;;
12334;SDS011;6233;51.560;9.986;2023-06-10T09:19:02;7.22;;;6.38;;
12334;SDS011;6233;51.560;9.986;2023-06-10T09:22:09;5.80;;;5.30;;
12334;SDS011;6233;51.560;9.986;2023-06-10T09:25:11;6.75;;;5.53;;
12334;SDS011;6233;51.560;9.986;2023-06-10T09:28:14;6.65;;;5.40;;
12334;SDS011;6233;51.560;9.986;2023-06-10T09:31:16;5.53;;;4.90;;
12334;SDS011;6233;51.560;9.986;2023-06-10T09:34:20;5.70;;;5.10;;
12334;SDS011;6233;51.560;9.986;2023-06-10T09:37:25;9.85;;;8.98;;
12334;SDS011;6233;51.560;9.986;2023-06-10T09:40:28;6.00;;;5.47;;
12334;SDS011;6233;51.560;9.986;2023-06-10T09:43:39;6.43;;;5.47;;
12334;SDS011;6233;51.560;9.986;2023-06-10T09:46:47;5.75;;;5.25;;
12334;SDS011;6233;51.560;9.986;2023-06-10T09:49:51;5.53;;;5.10;;
12334;SDS011;6233;51.560;9.986;2023-06-10T09:52:56;5.90;;;5.38;;
12334;SDS011;6233;51.560;9.986;2023-06-10T09:55:58;5.90;;;5.30;;
12334;SDS011;6233;51.560;9.986;2023-06-10T09:58:59;5.82;;;5.32;;
12334;SDS011;6233;51.560;9.986;2023-06-10T10:02:01;6.35;;;5.53;;
12334;SDS011;6233;51.560;9.986;2023-06-10T10:05:07;6.13;;;5.35;;
12334;SDS011;6233;51.560;9.986;2023-06-10T10:08:10;5.55;;;5.05;;
12334;SDS011;6233;51.560;9.986;2023-06-10T10:11:11;5.82;;;5.32;;
12334;SDS011;6233;51.560;9.986;2023-06-10T10:14:15;6.50;;;5.38;;
12334;SDS011;6233;51.560;9.986;2023-06-10T10:17:17;7.90;;;7.10;;
12334;SDS011;6233;51.560;9.986;2023-06-10T10:20:24;7.90;;;5.85;;
12334;SDS011;6233;51.560;9.986;2023-06-10T10:23:31;8.18;;;6.40;;
12334;SDS011;6233;51.560;9.986;2023-06-10T10:26:40;7.28;;;5.60;;
12334;SDS011;6233;51.560;9.986;2023-06-10T10:29:47;6.22;;;5.63;;
12334;SDS011;6233;51.560;9.986;2023-06-10T10:33:05;6.03;;;5.45;;
12334;SDS011;6233;51.560;9.986;2023-06-10T10:36:13;6.13;;;5.63;;
12334;SDS011;6233;51.560;9.986;2023-06-10T10:39:16;6.70;;;5.80;;
12334;SDS011;6233;51.560;9.986;2023-06-10T10:42:19;5.97;;;5.40;;
12334;SDS011;6233;51.560;9.986;2023-06-10T10:45:22;6.00;;;5.47;;
12334;SDS011;6233;51.560;9.986;2023-06-10T10:48:24;6.67;;;5.70;;
12334;SDS011;6233;51.560;9.986;2023-06-10T10:51:26;8.37;;;5.47;;
12334;SDS011;6233;51.560;9.986;2023-06-10T10:54:35;6.20;;;5.60;;
12334;SDS011;6233;51.560;9.986;2023-06-10T10:57:38;6.30;;;5.47;;
12334;SDS011;6233;51.560;9.986;2023-06-10T11:00:44;6.83;;;6.00;;
12334;SDS011;6233;51.560;9.986;2023-06-10T11:03:47;6.97;;;6.00;;
12334;SDS011;6233;51.560;9.986;2023-06-10T11:06:54;8.10;;;6.00;;
12334;SDS011;6233;51.560;9.986;2023-06-10T11:10:13;6.63;;;6.03;;
12334;SDS011;6233;51.560;9.986;2023-06-10T11:13:18;6.60;;;5.93;;
12334;SDS011;6233;51.560;9.986;2023-06-10T11:16:22;6.30;;;5.70;;
12334;SDS011;6233;51.560;9.986;2023-06-10T11:19:34;6.80;;;6.13;;
12334;SDS011;6233;51.560;9.986;2023-06-10T11:22:57;6.77;;;6.00;;
12334;SDS011;6233;51.560;9.986;2023-06-10T11:26:15;7.10;;;6.47;;
12334;SDS011;6233;51.560;9.986;2023-06-10T11:29:28;6.80;;;6.03;;
12334;SDS011;6233;51.560;9.986;2023-06-10T11:32:30;7.30;;;6.60;;
12334;SDS011;6233;51.560;9.986;2023-06-10T11:39:37;7.33;;;6.70;;
12334;SDS011;6233;51.560;9.986;2023-06-10T11:42:40;7.70;;;6.90;;
12334;SDS011;6233;51.560;9.986;2023-06-10T11:45:43;7.50;;;6.70;;
12334;SDS011;6233;51.560;9.986;2023-06-10T11:48:49;9.90;;;6.77;;
12334;SDS011;6233;51.560;9.986;2023-06-10T11:51:52;8.53;;;7.07;;
12334;SDS011;6233;51.560;9.986;2023-06-10T11:54:54;12.10;;;10.93;;
12334;SDS011;6233;51.560;9.986;2023-06-10T11:57:57;8.60;;;7.50;;
12334;SDS011;6233;51.560;9.986;2023-06-10T12:00:58;9.03;;;7.60;;
12334;SDS011;6233;51.560;9.986;2023-06-10T12:04:03;8.50;;;7.07;;
12334;SDS011;6233;51.560;9.986;2023-06-10T12:07:06;8.27;;;7.50;;
12334;SDS011;6233;51.560;9.986;2023-06-10T12:10:08;7.10;;;6.53;;
12334;SDS011;6233;51.560;9.986;2023-06-10T12:13:27;8.13;;;7.43;;
12334;SDS011;6233;51.560;9.986;2023-06-10T12:16:30;7.87;;;7.10;;
12334;SDS011;6233;51.560;9.986;2023-06-10T12:19:32;8.50;;;7.70;;
12334;SDS011;6233;51.560;9.986;2023-06-10T12:22:42;9.43;;;7.47;;
12334;SDS011;6233;51.560;9.986;2023-06-10T12:25:51;8.10;;;7.40;;
12334;SDS011;6233;51.560;9.986;2023-06-10T12:28:54;7.83;;;6.83;;
12334;SDS011;6233;51.560;9.986;2023-06-10T12:31:56;8.17;;;7.43;;
12334;SDS011;6233;51.560;9.986;2023-06-10T12:35:03;11.50;;;7.10;;
12334;SDS011;6233;51.560;9.986;2023-06-10T12:38:06;8.53;;;7.37;;
12334;SDS011;6233;51.560;9.986;2023-06-10T12:41:08;8.10;;;7.30;;
12334;SDS011;6233;51.560;9.986;2023-06-10T12:44:10;8.00;;;7.30;;
12334;SDS011;6233;51.560;9.986;2023-06-10T12:47:12;7.53;;;6.83;;
12334;SDS011;6233;51.560;9.986;2023-06-10T12:50:14;7.63;;;6.97;;
12334;SDS011;6233;51.560;9.986;2023-06-10T12:53:16;7.30;;;6.63;;
12334;SDS011;6233;51.560;9.986;2023-06-10T12:56:18;7.70;;;7.00;;
12334;SDS011;6233;51.560;9.986;2023-06-10T12:59:19;7.63;;;6.93;;
12334;SDS011;6233;51.560;9.986;2023-06-10T13:02:21;7.23;;;6.50;;
12334;SDS011;6233;51.560;9.986;2023-06-10T13:05:25;7.73;;;7.07;;
12334;SDS011;6233;51.560;9.986;2023-06-10T13:08:27;7.93;;;7.23;;
12334;SDS011;6233;51.560;9.986;2023-06-10T13:11:28;7.53;;;6.90;;
12334;SDS011;6233;51.560;9.986;2023-06-10T13:14:30;8.07;;;6.53;;
12334;SDS011;6233;51.560;9.986;2023-06-10T13:17:32;7.93;;;7.13;;
12334;SDS011;6233;51.560;9.986;2023-06-10T13:20:35;7.33;;;6.73;;
12334;SDS011;6233;51.560;9.986;2023-06-10T13:23:37;8.50;;;7.27;;
12334;SDS011;6233;51.560;9.986;2023-06-10T13:26:39;8.63;;;6.93;;
12334;SDS011;6233;51.560;9.986;2023-06-10T13:29:41;6.83;;;6.23;;
12334;SDS011;6233;51.560;9.986;2023-06-10T13:32:43;6.53;;;5.93;;
12334;SDS011;6233;51.560;9.986;2023-06-10T13:35:45;7.13;;;6.40;;
12334;SDS011;6233;51.560;9.986;2023-06-10T13:38:46;6.87;;;5.60;;
12334;SDS011;6233;51.560;9.986;2023-06-10T13:41:48;6.17;;;5.03;;
12334;SDS011;6233;51.560;9.986;2023-06-10T13:44:50;6.63;;;5.43;;
12334;SDS011;6233;51.560;9.986;2023-06-10T13:51:32;7.53;;;5.67;;
12334;SDS011;6233;51.560;9.986;2023-06-10T13:54:34;6.33;;;5.73;;
12334;SDS011;6233;51.560;9.986;2023-06-10T13:57:38;6.70;;;5.97;;
12334;SDS011;6233;51.560;9.986;2023-06-10T14:00:40;6.60;;;6.00;;
12334;SDS011;6233;51.560;9.986;2023-06-10T14:03:42;6.93;;;6.23;;
12334;SDS011;6233;51.560;9.986;2023-06-10T14:06:44;7.40;;;6.60;;
12334;SDS011;6233;51.560;9.986;2023-06-10T14:09:46;7.40;;;6.67;;
12334;SDS011;6233;51.560;9.986;2023-06-10T14:12:48;6.53;;;6.03;;
12334;SDS011;6233;51.560;9.986;2023-06-10T14:15:50;7.07;;;6.37;;
12334;SDS011;6233;51.560;9.986;2023-06-10T14:18:52;6.63;;;6.13;;
12334;SDS011;6233;51.560;9.986;2023-06-10T14:21:53;7.40;;;6.70;;
12334;SDS011;6233;51.560;9.986;2023-06-10T14:24:56;6.83;;;6.23;;
12334;SDS011;6233;51.560;9.986;2023-06-10T14:27:58;6.77;;;6.17;;
12334;SDS011;6233;51.560;9.986;2023-06-10T14:31:00;7.53;;;6.80;;
12334;SDS011;6233;51.560;9.986;2023-06-10T14:34:01;7.47;;;6.73;;
12334;SDS011;6233;51.560;9.986;2023-06-10T14:37:03;9.20;;;7.50;;
12334;SDS011;6233;51.560;9.986;2023-06-10T14:40:08;7.40;;;6.60;;
12334;SDS011;6233;51.560;9.986;2023-06-10T14:43:11;8.10;;;6.93;;
12334;SDS011;6233;51.560;9.986;2023-06-10T14:46:13;9.40;;;6.97;;
12334;SDS011;6233;51.560;9.986;2023-06-10T14:49:15;7.53;;;6.80;;
12334;SDS011;6233;51.560;9.986;2023-06-10T14:52:16;8.53;;;6.67;;
12334;SDS011;6233;51.560;9.986;2023-06-10T14:55:18;8.10;;;6.57;;
12334;SDS011;6233;51.560;9.986;2023-06-10T14:58:20;7.97;;;6.63;;
12334;SDS011;6233;51.560;9.986;2023-06-10T15:01:22;7.43;;;6.73;;
12334;SDS011;6233;51.560;9.986;2023-06-10T15:04:24;7.90;;;6.97;;
12334;SDS011;6233;51.560;9.986;2023-06-10T15:07:26;8.87;;;7.00;;
12334;SDS011;6233;51.560;9.986;2023-06-10T15:10:27;7.40;;;6.70;;
12334;SDS011;6233;51.560;9.986;2023-06-10T15:13:29;7.97;;;6.43;;
12334;SDS011;6233;51.560;9.986;2023-06-10T15:16:31;6.83;;;6.23;;
12334;SDS011;6233;51.560;9.986;2023-06-10T15:19:34;7.43;;;6.47;;
12334;SDS011;6233;51.560;9.986;2023-06-10T15:22:35;9.27;;;7.27;;
12334;SDS011;6233;51.560;9.986;2023-06-10T15:25:37;7.67;;;6.97;;
12334;SDS011;6233;51.560;9.986;2023-06-10T15:28:41;7.67;;;7.00;;
12334;SDS011;6233;51.560;9.986;2023-06-10T15:31:43;9.30;;;6.53;;
12334;SDS011;6233;51.560;9.986;2023-06-10T15:34:45;7.30;;;6.70;;
12334;SDS011;6233;51.560;9.986;2023-06-10T15:37:48;7.93;;;7.17;;
12334;SDS011;6233;51.560;9.986;2023-06-10T15:40:50;7.50;;;6.80;;
12334;SDS011;6233;51.560;9.986;2023-06-10T15:43:52;6.90;;;6.30;;
12334;SDS011;6233;51.560;9.986;2023-06-10T15:46:54;7.73;;;7.07;;
12334;SDS011;6233;51.560;9.986;2023-06-10T15:49:56;9.17;;;7.20;;
12334;SDS011;6233;51.560;9.986;2023-06-10T15:52:58;7.40;;;6.73;;
12334;SDS011;6233;51.560;9.986;2023-06-10T15:59:34;8.27;;;6.90;;
12334;SDS011;6233;51.560;9.986;2023-06-10T16:02:36;7.73;;;6.80;;
12334;SDS011;6233;51.560;9.986;2023-06-10T16:05:38;7.93;;;7.13;;
12334;SDS011;6233;51.560;9.986;2023-06-10T16:08:39;7.87;;;7.07;;
12334;SDS011;6233;51.560;9.986;2023-06-10T16:11:41;7.97;;;7.17;;
12334;SDS011;6233;51.560;9.986;2023-06-10T16:14:43;8.60;;;7.80;;
12334;SDS011;6233;51.560;9.986;2023-06-10T16:17:45;7.67;;;7.07;;
12334;SDS011;6233;51.560;9.986;2023-06-10T16:20:48;7.70;;;7.00;;
12334;SDS011;6233;51.560;9.986;2023-06-10T16:23:50;8.70;;;7.90;;
12334;SDS011;6233;51.560;9.986;2023-06-10T16:26:52;10.33;;;7.80;;
12334;SDS011;6233;51.560;9.986;2023-06-10T16:29:53;15.03;;;7.20;;
12334;SDS011;6233;51.560;9.986;2023-06-10T16:32:55;8.03;;;7.27;;
12334;SDS011;6233;51.560;9.986;2023-06-10T16:35:58;8.13;;;6.53;;
12334;SDS011;6233;51.560;9.986;2023-06-10T16:39:00;8.20;;;6.33;;
12334;SDS011;6233;51.560;9.986;2023-06-10T16:42:02;8.53;;;6.80;;
12334;SDS011;6233;51.560;9.986;2023-06-10T16:45:04;9.63;;;6.50;;
12334;SDS011;6233;51.560;9.986;2023-06-10T16:48:07;9.37;;;6.87;;
12334;SDS011;6233;51.560;9.986;2023-06-10T16:51:08;10.40;;;7.40;;
12334;SDS011;6233;51.560;9.986;2023-06-10T16:54:10;8.77;;;7.73;;
12334;SDS011;6233;51.560;9.986;2023-06-10T16:57:12;10.50;;;7.83;;
12334;SDS011;6233;51.560;9.986;2023-06-10T17:03:58;9.17;;;8.17;;
12334;SDS011;6233;51.560;9.986;2023-06-10T17:07:00;7.53;;;6.93;;
12334;SDS011;6233;51.560;9.986;2023-06-10T17:10:02;8.70;;;7.93;;
12334;SDS011;6233;51.560;9.986;2023-06-10T17:13:04;8.77;;;7.47;;
12334;SDS011;6233;51.560;9.986;2023-06-10T17:16:06;9.07;;;7.30;;
12334;SDS011;6233;51.560;9.986;2023-06-10T17:19:08;8.07;;;7.37;;
12334;SDS011;6233;51.560;9.986;2023-06-10T17:22:10;8.07;;;7.30;;
12334;SDS011;6233;51.560;9.986;2023-06-10T17:25:12;7.27;;;6.67;;
12334;SDS011;6233;51.560;9.986;2023-06-10T17:28:13;7.93;;;7.13;;
12334;SDS011;6233;51.560;9.986;2023-06-10T17:31:15;10.53;;;6.57;;
12334;SDS011;6233;51.560;9.986;2023-06-10T17:34:17;7.70;;;6.90;;
12334;SDS011;6233;51.560;9.986;2023-06-10T17:37:19;6.87;;;6.27;;
12334;SDS011;6233;51.560;9.986;2023-06-10T17:40:21;6.80;;;6.30;;
12334;SDS011;6233;51.560;9.986;2023-06-10T17:43:37;6.40;;;5.80;;
12334;SDS011;6233;51.560;9.986;2023-06-10T17:50:13;6.33;;;5.73;;
12334;SDS011;6233;51.560;9.986;2023-06-10T17:53:19;6.63;;;5.90;;
12334;SDS011;6233;51.560;9.986;2023-06-10T17:56:25;7.47;;;6.30;;
12334;SDS011;6233;51.560;9.986;2023-06-10T17:59:27;6.90;;;6.27;;
12334;SDS011;6233;51.560;9.986;2023-06-10T18:02:29;7.07;;;6.47;;
12334;SDS011;6233;51.560;9.986;2023-06-10T18:05:31;7.00;;;6.40;;
12334;SDS011;6233;51.560;9.986;2023-06-10T18:08:32;7.50;;;6.83;;
12334;SDS011;6233;51.560;9.986;2023-06-10T18:11:36;7.70;;;7.00;;
12334;SDS011;6233;51.560;9.986;2023-06-10T18:14:38;8.03;;;7.37;;
12334;SDS011;6233;51.560;9.986;2023-06-10T18:17:39;7.97;;;7.30;;
12334;SDS011;6233;51.560;9.986;2023-06-10T18:20:41;8.47;;;7.70;;
12334;SDS011;6233;51.560;9.986;2023-06-10T18:23:43;7.60;;;7.00;;
12334;SDS011;6233;51.560;9.986;2023-06-10T18:26:45;8.40;;;7.60;;
12334;SDS011;6233;51.560;9.986;2023-06-10T18:29:47;8.50;;;7.80;;
12334;SDS011;6233;51.560;9.986;2023-06-10T18:32:48;8.70;;;7.90;;
12334;SDS011;6233;51.560;9.986;2023-06-10T18:35:50;8.37;;;7.60;;
12334;SDS011;6233;51.560;9.986;2023-06-10T18:38:52;8.43;;;7.60;;
12334;SDS011;6233;51.560;9.986;2023-06-10T18:41:54;8.83;;;8.13;;
12334;SDS011;6233;51.560;9.986;2023-06-10T18:48:53;9.27;;;8.20;;
12334;SDS011;6233;51.560;9.986;2023-06-10T18:51:55;9.43;;;8.60;;
12334;SDS011;6233;51.560;9.986;2023-06-10T18:54:57;8.33;;;7.73;;
12334;SDS011;6233;51.560;9.986;2023-06-10T18:57:59;9.13;;;8.33;;
12334;SDS011;6233;51.560;9.986;2023-06-10T19:01:01;9.07;;;8.23;;
12334;SDS011;6233;51.560;9.986;2023-06-10T19:04:04;9.03;;;8.23;;
12334;SDS011;6233;51.560;9.986;2023-06-10T19:07:05;8.60;;;7.90;;
12334;SDS011;6233;51.560;9.986;2023-06-10T19:10:07;8.90;;;8.10;;